sensor_id;sensor_type;location;lat;lon;timestamp;temperature;humidity
68813;DHT22;55808;48.112;11.552;2023-03-23T00:00:45;10.40;97.00
68813;DHT22;55808;48.112;11.552;2023-03-23T00:03:10;10.60;97.40
68813;DHT22;55808;48.112;11.552;2023-03-23T00:05:37;10.50;98.50
68813;DHT22;55808;48.112;11.552;2023-03-23T00:08:03;10.40;98.60
68813;DHT22;55808;48.112;11.552;2023-03-23T00:10:29;10.40;98.20
68813;DHT22;55808;48.112;11.552;2023-03-23T00:12:58;10.40;98.10
68813;DHT22;55808;48.112;11.552;2023-03-23T00:15:28;10.40;99.30
68813;DHT22;55808;48.112;11.552;2023-03-23T00:18:00;10.30;98.40
68813;DHT22;55808;48.112;11.552;2023-03-23T00:20:30;10.30;98.90
68813;DHT22;55808;48.112;11.552;2023-03-23T00:23:02;10.30;99.00
68813;DHT22;55808;48.112;11.552;2023-03-23T00:25:30;10.30;99.40
68813;DHT22;55808;48.112;11.552;2023-03-23T00:27:56;10.20;99.30
68813;DHT22;55808;48.112;11.552;2023-03-23T00:30:21;10.30;99.90
68813;DHT22;55808;48.112;11.552;2023-03-23T00:32:47;10.30;99.90
68813;DHT22;55808;48.112;11.552;2023-03-23T00:35:13;10.30;99.70
68813;DHT22;55808;48.112;11.552;2023-03-23T00:37:39;10.20;99.60
68813;DHT22;55808;48.112;11.552;2023-03-23T00:40:05;10.10;99.60
68813;DHT22;55808;48.112;11.552;2023-03-23T00:42:34;10.20;99.90
68813;DHT22;55808;48.112;11.552;2023-03-23T00:45:02;10.20;99.90
68813;DHT22;55808;48.112;11.552;2023-03-23T00:47:29;10.20;99.70
68813;DHT22;55808;48.112;11.552;2023-03-23T00:49:55;10.30;99.90
68813;DHT22;55808;48.112;11.552;2023-03-23T00:52:21;10.30;99.90
68813;DHT22;55808;48.112;11.552;2023-03-23T00:54:47;10.20;99.90
68813;DHT22;55808;48.112;11.552;2023-03-23T00:57:12;10.20;99.90
68813;DHT22;55808;48.112;11.552;2023-03-23T00:59:38;10.20;99.90
68813;DHT22;55808;48.112;11.552;2023-03-23T01:02:03;10.20;99.90
68813;DHT22;55808;48.112;11.552;2023-03-23T01:04:29;10.30;99.90
68813;DHT22;55808;48.112;11.552;2023-03-23T01:06:56;10.30;99.90
68813;DHT22;55808;48.112;11.552;2023-03-23T01:09:22;10.20;99.90
68813;DHT22;55808;48.112;11.552;2023-03-23T01:11:49;10.20;99.90
68813;DHT22;55808;48.112;11.552;2023-03-23T01:14:15;10.30;99.90
68813;DHT22;55808;48.112;11.552;2023-03-23T01:16:41;10.30;99.90
68813;DHT22;55808;48.112;11.552;2023-03-23T01:19:07;10.30;99.90
68813;DHT22;55808;48.112;11.552;2023-03-23T01:21:32;10.20;99.90
68813;DHT22;55808;48.112;11.552;2023-03-23T01:23:58;10.30;99.90
68813;DHT22;55808;48.112;11.552;2023-03-23T01:26:24;10.30;99.90
68813;DHT22;55808;48.112;11.552;2023-03-23T01:28:50;10.30;99.90
68813;DHT22;55808;48.112;11.552;2023-03-23T01:31:17;10.30;99.90
68813;DHT22;55808;48.112;11.552;2023-03-23T01:33:43;10.30;99.90
68813;DHT22;55808;48.112;11.552;2023-03-23T01:36:13;10.30;99.90
68813;DHT22;55808;48.112;11.552;2023-03-23T01:38:40;10.30;99.90
68813;DHT22;55808;48.112;11.552;2023-03-23T01:41:06;10.20;99.90
68813;DHT22;55808;48.112;11.552;2023-03-23T01:43:32;10.30;99.90
68813;DHT22;55808;48.112;11.552;2023-03-23T01:45:57;10.30;99.90
68813;DHT22;55808;48.112;11.552;2023-03-23T01:48:24;10.30;99.90
68813;DHT22;55808;48.112;11.552;2023-03-23T01:50:54;10.20;99.90
68813;DHT22;55808;48.112;11.552;2023-03-23T01:53:20;10.20;99.90
68813;DHT22;55808;48.112;11.552;2023-03-23T01:55:47;10.20;99.90
68813;DHT22;55808;48.112;11.552;2023-03-23T01:58:17;10.20;99.90
68813;DHT22;55808;48.112;11.552;2023-03-23T02:00:42;10.20;99.90
68813;DHT22;55808;48.112;11.552;2023-03-23T02:03:08;10.20;99.90
68813;DHT22;55808;48.112;11.552;2023-03-23T02:05:37;10.20;99.90
68813;DHT22;55808;48.112;11.552;2023-03-23T02:08:03;10.20;99.90
68813;DHT22;55808;48.112;11.552;2023-03-23T02:10:31;10.20;99.90
68813;DHT22;55808;48.112;11.552;2023-03-23T02:13:00;10.20;99.90
68813;DHT22;55808;48.112;11.552;2023-03-23T02:15:27;10.20;99.90
68813;DHT22;55808;48.112;11.552;2023-03-23T02:18:16;10.20;99.90
68813;DHT22;55808;48.112;11.552;2023-03-23T02:20:48;10.10;99.90
68813;DHT22;55808;48.112;11.552;2023-03-23T02:23:24;10.00;99.90
68813;DHT22;55808;48.112;11.552;2023-03-23T02:26:06;9.90;99.90
68813;DHT22;55808;48.112;11.552;2023-03-23T02:33:35;10.00;99.90
68813;DHT22;55808;48.112;11.552;2023-03-23T02:36:07;10.00;99.90
68813;DHT22;55808;48.112;11.552;2023-03-23T02:38:40;10.00;99.90
68813;DHT22;55808;48.112;11.552;2023-03-23T02:41:08;9.90;99.90
68813;DHT22;55808;48.112;11.552;2023-03-23T02:43:37;10.00;99.90
68813;DHT22;55808;48.112;11.552;2023-03-23T02:46:04;10.00;99.90
68813;DHT22;55808;48.112;11.552;2023-03-23T02:48:31;9.90;99.90
68813;DHT22;55808;48.112;11.552;2023-03-23T02:50:57;9.90;99.90
68813;DHT22;55808;48.112;11.552;2023-03-23T02:53:25;9.90;99.90
68813;DHT22;55808;48.112;11.552;2023-03-23T02:55:52;9.90;99.90
68813;DHT22;55808;48.112;11.552;2023-03-23T02:58:18;9.90;99.90
68813;DHT22;55808;48.112;11.552;2023-03-23T03:00:45;9.90;99.90
68813;DHT22;55808;48.112;11.552;2023-03-23T03:03:15;9.90;99.90
68813;DHT22;55808;48.112;11.552;2023-03-23T03:05:46;9.80;99.90
68813;DHT22;55808;48.112;11.552;2023-03-23T03:10:59;9.60;99.90
68813;DHT22;55808;48.112;11.552;2023-03-23T03:18:52;9.70;99.90
68813;DHT22;55808;48.112;11.552;2023-03-23T03:21:20;9.70;99.90
68813;DHT22;55808;48.112;11.552;2023-03-23T03:23:52;9.70;99.90
68813;DHT22;55808;48.112;11.552;2023-03-23T03:26:18;9.70;99.90
68813;DHT22;55808;48.112;11.552;2023-03-23T03:28:46;9.70;99.90
68813;DHT22;55808;48.112;11.552;2023-03-23T03:31:13;9.70;99.90
68813;DHT22;55808;48.112;11.552;2023-03-23T03:33:39;9.70;99.90
68813;DHT22;55808;48.112;11.552;2023-03-23T03:36:04;9.60;99.90
68813;DHT22;55808;48.112;11.552;2023-03-23T03:38:40;9.60;99.90
68813;DHT22;55808;48.112;11.552;2023-03-23T03:41:06;9.60;99.90
68813;DHT22;55808;48.112;11.552;2023-03-23T03:43:32;9.60;99.90
68813;DHT22;55808;48.112;11.552;2023-03-23T03:45:57;9.50;99.90
68813;DHT22;55808;48.112;11.552;2023-03-23T03:48:23;9.40;99.90
68813;DHT22;55808;48.112;11.552;2023-03-23T03:50:48;9.40;99.90
68813;DHT22;55808;48.112;11.552;2023-03-23T03:53:14;9.50;99.90
68813;DHT22;55808;48.112;11.552;2023-03-23T03:55:39;9.50;99.90
68813;DHT22;55808;48.112;11.552;2023-03-23T03:58:10;9.50;99.90
68813;DHT22;55808;48.112;11.552;2023-03-23T04:00:36;9.50;99.90
68813;DHT22;55808;48.112;11.552;2023-03-23T04:03:01;9.50;99.90
68813;DHT22;55808;48.112;11.552;2023-03-23T04:05:27;9.50;99.90
68813;DHT22;55808;48.112;11.552;2023-03-23T04:07:54;9.40;99.90
68813;DHT22;55808;48.112;11.552;2023-03-23T04:10:26;9.40;99.90
68813;DHT22;55808;48.112;11.552;2023-03-23T04:12:52;9.50;99.90
68813;DHT22;55808;48.112;11.552;2023-03-23T04:15:17;9.60;99.90
68813;DHT22;55808;48.112;11.552;2023-03-23T04:17:43;9.60;99.90
68813;DHT22;55808;48.112;11.552;2023-03-23T04:20:09;9.50;99.90
68813;DHT22;55808;48.112;11.552;2023-03-23T04:22:39;9.50;99.90
68813;DHT22;55808;48.112;11.552;2023-03-23T04:25:04;9.50;99.90
68813;DHT22;55808;48.112;11.552;2023-03-23T04:27:31;9.50;99.90
68813;DHT22;55808;48.112;11.552;2023-03-23T04:29:57;9.50;99.90
68813;DHT22;55808;48.112;11.552;2023-03-23T04:32:24;9.50;99.90
68813;DHT22;55808;48.112;11.552;2023-03-23T04:34:57;9.50;99.90
68813;DHT22;55808;48.112;11.552;2023-03-23T04:37:26;9.50;99.90
68813;DHT22;55808;48.112;11.552;2023-03-23T04:39:54;9.50;99.90
68813;DHT22;55808;48.112;11.552;2023-03-23T04:42:28;9.50;99.90
68813;DHT22;55808;48.112;11.552;2023-03-23T04:44:55;9.50;99.90
68813;DHT22;55808;48.112;11.552;2023-03-23T04:47:21;9.50;99.90
68813;DHT22;55808;48.112;11.552;2023-03-23T04:49:46;9.50;99.90
68813;DHT22;55808;48.112;11.552;2023-03-23T04:52:12;9.50;99.90
68813;DHT22;55808;48.112;11.552;2023-03-23T04:54:39;9.50;99.90
68813;DHT22;55808;48.112;11.552;2023-03-23T04:57:04;9.50;99.90
68813;DHT22;55808;48.112;11.552;2023-03-23T04:59:30;9.40;99.90
68813;DHT22;55808;48.112;11.552;2023-03-23T05:01:56;9.40;99.90
68813;DHT22;55808;48.112;11.552;2023-03-23T05:04:21;9.40;99.90
68813;DHT22;55808;48.112;11.552;2023-03-23T05:06:48;9.40;99.90
68813;DHT22;55808;48.112;11.552;2023-03-23T05:09:13;9.50;99.90
68813;DHT22;55808;48.112;11.552;2023-03-23T05:11:39;9.40;99.90
68813;DHT22;55808;48.112;11.552;2023-03-23T05:14:04;9.50;99.90
68813;DHT22;55808;48.112;11.552;2023-03-23T05:16:30;9.40;99.90
68813;DHT22;55808;48.112;11.552;2023-03-23T05:18:56;9.50;99.90
68813;DHT22;55808;48.112;11.552;2023-03-23T05:21:24;9.60;99.90
68813;DHT22;55808;48.112;11.552;2023-03-23T05:23:51;9.50;99.90
68813;DHT22;55808;48.112;11.552;2023-03-23T05:26:20;9.40;99.90
68813;DHT22;55808;48.112;11.552;2023-03-23T05:28:46;9.40;99.90
68813;DHT22;55808;48.112;11.552;2023-03-23T05:31:11;9.40;99.90
68813;DHT22;55808;48.112;11.552;2023-03-23T05:33:38;9.40;99.90
68813;DHT22;55808;48.112;11.552;2023-03-23T05:36:04;9.40;99.90
68813;DHT22;55808;48.112;11.552;2023-03-23T05:38:32;9.40;99.90
68813;DHT22;55808;48.112;11.552;2023-03-23T05:40:58;9.50;99.90
68813;DHT22;55808;48.112;11.552;2023-03-23T05:43:26;9.60;99.90
68813;DHT22;55808;48.112;11.552;2023-03-23T05:45:51;9.70;99.90
68813;DHT22;55808;48.112;11.552;2023-03-23T05:48:17;9.70;99.90
68813;DHT22;55808;48.112;11.552;2023-03-23T05:50:42;9.60;99.90
68813;DHT22;55808;48.112;11.552;2023-03-23T05:53:08;9.70;99.90
68813;DHT22;55808;48.112;11.552;2023-03-23T05:55:33;9.60;99.90
68813;DHT22;55808;48.112;11.552;2023-03-23T05:57:59;9.60;99.90
68813;DHT22;55808;48.112;11.552;2023-03-23T06:00:25;9.60;99.90
68813;DHT22;55808;48.112;11.552;2023-03-23T06:02:54;9.60;99.90
68813;DHT22;55808;48.112;11.552;2023-03-23T06:05:24;9.60;99.90
68813;DHT22;55808;48.112;11.552;2023-03-23T06:07:51;9.70;99.90
68813;DHT22;55808;48.112;11.552;2023-03-23T06:10:17;9.60;99.90
68813;DHT22;55808;48.112;11.552;2023-03-23T06:12:43;9.60;99.90
68813;DHT22;55808;48.112;11.552;2023-03-23T06:15:09;9.70;99.90
68813;DHT22;55808;48.112;11.552;2023-03-23T06:17:34;9.60;99.90
68813;DHT22;55808;48.112;11.552;2023-03-23T06:20:02;9.70;99.90
68813;DHT22;55808;48.112;11.552;2023-03-23T06:22:29;9.70;99.90
68813;DHT22;55808;48.112;11.552;2023-03-23T06:24:55;9.80;99.90
68813;DHT22;55808;48.112;11.552;2023-03-23T06:27:22;9.90;99.90
68813;DHT22;55808;48.112;11.552;2023-03-23T06:29:48;10.00;99.90
68813;DHT22;55808;48.112;11.552;2023-03-23T06:32:13;9.90;99.90
68813;DHT22;55808;48.112;11.552;2023-03-23T06:34:40;9.90;99.90
68813;DHT22;55808;48.112;11.552;2023-03-23T06:37:09;9.90;99.90
68813;DHT22;55808;48.112;11.552;2023-03-23T06:39:34;9.90;99.90
68813;DHT22;55808;48.112;11.552;2023-03-23T06:42:01;10.00;99.90
68813;DHT22;55808;48.112;11.552;2023-03-23T06:44:26;10.00;99.90
68813;DHT22;55808;48.112;11.552;2023-03-23T06:46:52;10.00;99.90
68813;DHT22;55808;48.112;11.552;2023-03-23T06:49:18;10.00;99.90
68813;DHT22;55808;48.112;11.552;2023-03-23T06:51:44;9.90;99.90
68813;DHT22;55808;48.112;11.552;2023-03-23T06:54:10;10.00;99.90
68813;DHT22;55808;48.112;11.552;2023-03-23T06:56:35;10.00;99.90
68813;DHT22;55808;48.112;11.552;2023-03-23T06:59:01;10.10;99.90
68813;DHT22;55808;48.112;11.552;2023-03-23T07:01:26;10.10;99.90
68813;DHT22;55808;48.112;11.552;2023-03-23T07:03:53;10.20;99.90
68813;DHT22;55808;48.112;11.552;2023-03-23T07:06:20;10.30;99.90
68813;DHT22;55808;48.112;11.552;2023-03-23T07:08:46;10.30;99.90
68813;DHT22;55808;48.112;11.552;2023-03-23T07:11:12;10.40;99.90
68813;DHT22;55808;48.112;11.552;2023-03-23T07:13:38;10.50;99.90
68813;DHT22;55808;48.112;11.552;2023-03-23T07:16:06;10.50;99.90
68813;DHT22;55808;48.112;11.552;2023-03-23T07:18:32;10.60;99.90
68813;DHT22;55808;48.112;11.552;2023-03-23T07:20:58;10.70;99.90
68813;DHT22;55808;48.112;11.552;2023-03-23T07:23:23;10.80;99.90
68813;DHT22;55808;48.112;11.552;2023-03-23T07:25:49;10.90;99.90
68813;DHT22;55808;48.112;11.552;2023-03-23T07:28:15;11.00;99.90
68813;DHT22;55808;48.112;11.552;2023-03-23T07:30:41;11.10;99.90
68813;DHT22;55808;48.112;11.552;2023-03-23T07:33:07;11.20;99.90
68813;DHT22;55808;48.112;11.552;2023-03-23T07:35:33;11.30;99.90
68813;DHT22;55808;48.112;11.552;2023-03-23T07:37:59;11.40;99.90
68813;DHT22;55808;48.112;11.552;2023-03-23T07:40:25;11.60;99.90
68813;DHT22;55808;48.112;11.552;2023-03-23T07:42:51;11.70;99.90
68813;DHT22;55808;48.112;11.552;2023-03-23T07:45:17;11.80;99.90
68813;DHT22;55808;48.112;11.552;2023-03-23T07:47:43;11.90;99.90
68813;DHT22;55808;48.112;11.552;2023-03-23T07:50:08;12.10;99.90
68813;DHT22;55808;48.112;11.552;2023-03-23T07:52:35;12.30;99.90
68813;DHT22;55808;48.112;11.552;2023-03-23T07:55:01;12.30;99.90
68813;DHT22;55808;48.112;11.552;2023-03-23T07:57:27;12.30;99.90
68813;DHT22;55808;48.112;11.552;2023-03-23T07:59:53;12.40;99.90
68813;DHT22;55808;48.112;11.552;2023-03-23T08:02:18;12.60;99.90
68813;DHT22;55808;48.112;11.552;2023-03-23T08:04:44;12.70;99.90
68813;DHT22;55808;48.112;11.552;2023-03-23T08:07:10;12.60;99.90
68813;DHT22;55808;48.112;11.552;2023-03-23T08:09:37;12.60;99.90
68813;DHT22;55808;48.112;11.552;2023-03-23T08:12:04;12.70;99.90
68813;DHT22;55808;48.112;11.552;2023-03-23T08:14:29;12.70;99.90
68813;DHT22;55808;48.112;11.552;2023-03-23T08:16:55;12.80;99.90
68813;DHT22;55808;48.112;11.552;2023-03-23T08:19:21;12.90;99.90
68813;DHT22;55808;48.112;11.552;2023-03-23T08:21:47;12.90;99.90
68813;DHT22;55808;48.112;11.552;2023-03-23T08:24:13;12.90;99.90
68813;DHT22;55808;48.112;11.552;2023-03-23T08:26:39;12.90;99.80
68813;DHT22;55808;48.112;11.552;2023-03-23T08:29:05;12.90;99.90
68813;DHT22;55808;48.112;11.552;2023-03-23T08:31:31;12.90;99.50
68813;DHT22;55808;48.112;11.552;2023-03-23T08:34:00;12.90;99.40
68813;DHT22;55808;48.112;11.552;2023-03-23T08:36:26;12.90;99.40
68813;DHT22;55808;48.112;11.552;2023-03-23T08:38:51;13.00;99.80
68813;DHT22;55808;48.112;11.552;2023-03-23T08:41:18;13.10;98.70
68813;DHT22;55808;48.112;11.552;2023-03-23T08:43:43;13.10;98.50
68813;DHT22;55808;48.112;11.552;2023-03-23T08:46:10;13.20;99.00
68813;DHT22;55808;48.112;11.552;2023-03-23T08:48:36;13.30;98.80
68813;DHT22;55808;48.112;11.552;2023-03-23T08:51:03;13.30;98.60
68813;DHT22;55808;48.112;11.552;2023-03-23T08:53:28;13.40;97.90
68813;DHT22;55808;48.112;11.552;2023-03-23T08:56:03;13.50;98.00
68813;DHT22;55808;48.112;11.552;2023-03-23T08:58:29;13.70;97.00
68813;DHT22;55808;48.112;11.552;2023-03-23T09:00:55;13.80;96.70
68813;DHT22;55808;48.112;11.552;2023-03-23T09:03:20;13.90;97.10
68813;DHT22;55808;48.112;11.552;2023-03-23T09:05:46;14.00;96.20
68813;DHT22;55808;48.112;11.552;2023-03-23T09:08:12;14.00;95.80
68813;DHT22;55808;48.112;11.552;2023-03-23T09:10:38;14.30;96.40
68813;DHT22;55808;48.112;11.552;2023-03-23T09:13:04;14.50;94.70
68813;DHT22;55808;48.112;11.552;2023-03-23T09:15:30;14.60;93.70
68813;DHT22;55808;48.112;11.552;2023-03-23T09:17:56;14.70;93.20
68813;DHT22;55808;48.112;11.552;2023-03-23T09:20:24;14.60;93.50
68813;DHT22;55808;48.112;11.552;2023-03-23T09:22:50;14.60;93.30
68813;DHT22;55808;48.112;11.552;2023-03-23T09:25:17;14.60;92.90
68813;DHT22;55808;48.112;11.552;2023-03-23T09:27:46;14.70;93.50
68813;DHT22;55808;48.112;11.552;2023-03-23T09:30:14;14.90;92.90
68813;DHT22;55808;48.112;11.552;2023-03-23T09:32:40;14.90;92.50
68813;DHT22;55808;48.112;11.552;2023-03-23T09:35:08;15.00;92.80
68813;DHT22;55808;48.112;11.552;2023-03-23T09:37:35;15.00;92.30
68813;DHT22;55808;48.112;11.552;2023-03-23T09:40:04;15.20;93.10
68813;DHT22;55808;48.112;11.552;2023-03-23T09:42:34;15.30;91.80
68813;DHT22;55808;48.112;11.552;2023-03-23T09:47:59;15.30;92.70
68813;DHT22;55808;48.112;11.552;2023-03-23T09:50:27;15.50;91.50
68813;DHT22;55808;48.112;11.552;2023-03-23T09:53:17;15.50;92.70
68813;DHT22;55808;48.112;11.552;2023-03-23T09:55:47;15.70;91.60
68813;DHT22;55808;48.112;11.552;2023-03-23T09:58:17;16.10;91.40
68813;DHT22;55808;48.112;11.552;2023-03-23T10:00:48;16.30;91.10
68813;DHT22;55808;48.112;11.552;2023-03-23T10:03:16;16.30;92.50
68813;DHT22;55808;48.112;11.552;2023-03-23T10:05:46;16.20;90.80
68813;DHT22;55808;48.112;11.552;2023-03-23T10:08:14;16.40;90.60
68813;DHT22;55808;48.112;11.552;2023-03-23T10:10:53;16.80;90.10
68813;DHT22;55808;48.112;11.552;2023-03-23T10:15:53;16.30;90.40
68813;DHT22;55808;48.112;11.552;2023-03-23T10:18:21;16.10;90.00
68813;DHT22;55808;48.112;11.552;2023-03-23T10:25:58;15.80;90.90
68813;DHT22;55808;48.112;11.552;2023-03-23T10:28:36;15.80;90.70
68813;DHT22;55808;48.112;11.552;2023-03-23T10:31:03;15.60;91.00
68813;DHT22;55808;48.112;11.552;2023-03-23T10:33:33;15.70;90.50
68813;DHT22;55808;48.112;11.552;2023-03-23T10:36:13;15.80;90.00
68813;DHT22;55808;48.112;11.552;2023-03-23T10:38:42;15.70;89.70
68813;DHT22;55808;48.112;11.552;2023-03-23T10:41:11;15.70;90.20
68813;DHT22;55808;48.112;11.552;2023-03-23T10:43:37;15.70;90.40
68813;DHT22;55808;48.112;11.552;2023-03-23T10:46:12;15.80;90.50
68813;DHT22;55808;48.112;11.552;2023-03-23T10:48:40;16.00;88.80
68813;DHT22;55808;48.112;11.552;2023-03-23T10:51:10;16.10;88.80
68813;DHT22;55808;48.112;11.552;2023-03-23T10:53:37;16.20;88.70
68813;DHT22;55808;48.112;11.552;2023-03-23T10:56:04;16.30;87.30
68813;DHT22;55808;48.112;11.552;2023-03-23T10:58:31;16.50;86.80
68813;DHT22;55808;48.112;11.552;2023-03-23T11:00:57;16.50;87.90
68813;DHT22;55808;48.112;11.552;2023-03-23T11:06:05;16.50;85.80
68813;DHT22;55808;48.112;11.552;2023-03-23T11:08:35;16.50;87.30
68813;DHT22;55808;48.112;11.552;2023-03-23T11:13:33;16.50;85.80
68813;DHT22;55808;48.112;11.552;2023-03-23T11:15:59;16.50;86.40
68813;DHT22;55808;48.112;11.552;2023-03-23T11:20:52;16.60;87.30
68813;DHT22;55808;48.112;11.552;2023-03-23T11:23:24;16.60;86.80
68813;DHT22;55808;48.112;11.552;2023-03-23T11:25:59;16.60;86.90
68813;DHT22;55808;48.112;11.552;2023-03-23T11:28:28;16.50;84.80
68813;DHT22;55808;48.112;11.552;2023-03-23T11:30:55;16.40;84.10
68813;DHT22;55808;48.112;11.552;2023-03-23T11:33:21;16.50;83.30
68813;DHT22;55808;48.112;11.552;2023-03-23T11:35:47;16.70;83.60
68813;DHT22;55808;48.112;11.552;2023-03-23T11:38:16;16.70;83.10
68813;DHT22;55808;48.112;11.552;2023-03-23T11:40:44;16.70;84.40
68813;DHT22;55808;48.112;11.552;2023-03-23T11:43:13;16.80;84.10
68813;DHT22;55808;48.112;11.552;2023-03-23T11:45:40;16.90;82.10
68813;DHT22;55808;48.112;11.552;2023-03-23T11:58:13;17.30;81.60
68813;DHT22;55808;48.112;11.552;2023-03-23T12:00:48;17.20;81.00
68813;DHT22;55808;48.112;11.552;2023-03-23T12:03:14;17.20;79.60
68813;DHT22;55808;48.112;11.552;2023-03-23T12:06:01;17.10;80.40
68813;DHT22;55808;48.112;11.552;2023-03-23T12:21:24;17.90;80.60
68813;DHT22;55808;48.112;11.552;2023-03-23T12:24:12;18.00;79.30
68813;DHT22;55808;48.112;11.552;2023-03-23T12:26:47;18.30;79.40
68813;DHT22;55808;48.112;11.552;2023-03-23T12:29:24;18.30;79.60
68813;DHT22;55808;48.112;11.552;2023-03-23T12:31:55;18.00;78.30
68813;DHT22;55808;48.112;11.552;2023-03-23T12:37:10;17.60;76.90
68813;DHT22;55808;48.112;11.552;2023-03-23T12:42:09;17.60;76.40
68813;DHT22;55808;48.112;11.552;2023-03-23T12:44:45;17.60;77.20
68813;DHT22;55808;48.112;11.552;2023-03-23T12:47:16;17.50;77.10
68813;DHT22;55808;48.112;11.552;2023-03-23T12:54:42;17.70;77.30
68813;DHT22;55808;48.112;11.552;2023-03-23T12:57:11;17.60;77.20
68813;DHT22;55808;48.112;11.552;2023-03-23T12:59:42;17.60;75.80
68813;DHT22;55808;48.112;11.552;2023-03-23T13:02:13;17.70;75.20
68813;DHT22;55808;48.112;11.552;2023-03-23T13:04:42;17.70;75.70
68813;DHT22;55808;48.112;11.552;2023-03-23T13:07:11;17.60;74.30
68813;DHT22;55808;48.112;11.552;2023-03-23T13:12:08;17.60;72.90
68813;DHT22;55808;48.112;11.552;2023-03-23T13:22:26;17.30;74.10
68813;DHT22;55808;48.112;11.552;2023-03-23T13:25:03;17.30;73.40
68813;DHT22;55808;48.112;11.552;2023-03-23T13:27:31;17.30;73.20
68813;DHT22;55808;48.112;11.552;2023-03-23T13:29:57;17.40;73.70
68813;DHT22;55808;48.112;11.552;2023-03-23T13:32:31;17.30;72.90
68813;DHT22;55808;48.112;11.552;2023-03-23T13:34:57;17.30;73.10
68813;DHT22;55808;48.112;11.552;2023-03-23T13:37:26;17.30;73.80
68813;DHT22;55808;48.112;11.552;2023-03-23T13:39:53;17.40;73.40
68813;DHT22;55808;48.112;11.552;2023-03-23T13:42:24;17.40;73.20
68813;DHT22;55808;48.112;11.552;2023-03-23T13:49:50;17.20;76.10
68813;DHT22;55808;48.112;11.552;2023-03-23T13:54:43;17.40;76.60
68813;DHT22;55808;48.112;11.552;2023-03-23T13:59:55;17.50;74.40
68813;DHT22;55808;48.112;11.552;2023-03-23T14:02:36;17.60;75.70
68813;DHT22;55808;48.112;11.552;2023-03-23T14:05:24;17.50;77.70
68813;DHT22;55808;48.112;11.552;2023-03-23T14:07:57;17.30;79.00
68813;DHT22;55808;48.112;11.552;2023-03-23T14:10:25;17.20;80.00
68813;DHT22;55808;48.112;11.552;2023-03-23T14:12:56;17.20;81.60
68813;DHT22;55808;48.112;11.552;2023-03-23T14:15:27;17.10;80.50
68813;DHT22;55808;48.112;11.552;2023-03-23T14:17:53;17.00;80.80
68813;DHT22;55808;48.112;11.552;2023-03-23T14:20:25;16.90;80.60
68813;DHT22;55808;48.112;11.552;2023-03-23T14:22:54;16.90;80.20
68813;DHT22;55808;48.112;11.552;2023-03-23T14:25:20;16.80;80.40
68813;DHT22;55808;48.112;11.552;2023-03-23T14:27:46;16.80;80.00
68813;DHT22;55808;48.112;11.552;2023-03-23T14:30:22;16.70;79.80
68813;DHT22;55808;48.112;11.552;2023-03-23T14:32:50;16.80;79.70
68813;DHT22;55808;48.112;11.552;2023-03-23T14:35:22;16.80;79.90
68813;DHT22;55808;48.112;11.552;2023-03-23T14:37:48;16.90;79.80
68813;DHT22;55808;48.112;11.552;2023-03-23T14:40:15;16.90;79.20
68813;DHT22;55808;48.112;11.552;2023-03-23T14:42:41;16.90;79.20
68813;DHT22;55808;48.112;11.552;2023-03-23T14:45:10;16.90;79.40
68813;DHT22;55808;48.112;11.552;2023-03-23T14:47:40;16.80;79.30
68813;DHT22;55808;48.112;11.552;2023-03-23T14:50:28;16.90;79.30
68813;DHT22;55808;48.112;11.552;2023-03-23T14:53:02;16.80;80.30
68813;DHT22;55808;48.112;11.552;2023-03-23T14:55:30;16.90;80.50
68813;DHT22;55808;48.112;11.552;2023-03-23T14:58:05;16.80;80.40
68813;DHT22;55808;48.112;11.552;2023-03-23T15:00:33;16.80;80.20
68813;DHT22;55808;48.112;11.552;2023-03-23T15:03:00;16.80;81.00
68813;DHT22;55808;48.112;11.552;2023-03-23T15:05:28;16.70;81.10
68813;DHT22;55808;48.112;11.552;2023-03-23T15:07:56;16.80;81.30
68813;DHT22;55808;48.112;11.552;2023-03-23T15:10:24;16.60;81.10
68813;DHT22;55808;48.112;11.552;2023-03-23T15:12:50;16.60;81.50
68813;DHT22;55808;48.112;11.552;2023-03-23T15:15:33;16.60;81.90
68813;DHT22;55808;48.112;11.552;2023-03-23T15:17:59;16.60;83.00
68813;DHT22;55808;48.112;11.552;2023-03-23T15:23:15;16.60;82.20
68813;DHT22;55808;48.112;11.552;2023-03-23T15:25:47;16.60;81.80
68813;DHT22;55808;48.112;11.552;2023-03-23T15:28:17;16.60;81.30
68813;DHT22;55808;48.112;11.552;2023-03-23T15:30:50;16.50;81.10
68813;DHT22;55808;48.112;11.552;2023-03-23T15:33:17;16.40;82.20
68813;DHT22;55808;48.112;11.552;2023-03-23T15:35:47;16.00;83.50
68813;DHT22;55808;48.112;11.552;2023-03-23T15:38:32;15.80;84.40
68813;DHT22;55808;48.112;11.552;2023-03-23T15:40:59;16.00;85.80
68813;DHT22;55808;48.112;11.552;2023-03-23T15:43:27;16.30;84.00
68813;DHT22;55808;48.112;11.552;2023-03-23T15:48:19;16.30;85.00
68813;DHT22;55808;48.112;11.552;2023-03-23T15:50:46;16.20;85.60
68813;DHT22;55808;48.112;11.552;2023-03-23T15:55:49;16.10;84.70
68813;DHT22;55808;48.112;11.552;2023-03-23T15:58:15;16.00;85.60
68813;DHT22;55808;48.112;11.552;2023-03-23T16:00:41;16.00;85.50
68813;DHT22;55808;48.112;11.552;2023-03-23T16:03:10;16.00;85.10
68813;DHT22;55808;48.112;11.552;2023-03-23T16:05:36;16.00;85.80
68813;DHT22;55808;48.112;11.552;2023-03-23T16:08:02;15.90;86.10
68813;DHT22;55808;48.112;11.552;2023-03-23T16:10:28;15.80;85.80
68813;DHT22;55808;48.112;11.552;2023-03-23T16:12:54;15.70;86.70
68813;DHT22;55808;48.112;11.552;2023-03-23T16:15:19;15.70;89.50
68813;DHT22;55808;48.112;11.552;2023-03-23T16:17:45;15.60;88.40
68813;DHT22;55808;48.112;11.552;2023-03-23T16:20:15;15.60;87.60
68813;DHT22;55808;48.112;11.552;2023-03-23T16:22:41;15.70;88.10
68813;DHT22;55808;48.112;11.552;2023-03-23T16:25:07;15.60;88.20
68813;DHT22;55808;48.112;11.552;2023-03-23T16:27:32;15.50;90.00
68813;DHT22;55808;48.112;11.552;2023-03-23T16:29:58;15.40;91.20
68813;DHT22;55808;48.112;11.552;2023-03-23T16:32:25;15.30;93.50
68813;DHT22;55808;48.112;11.552;2023-03-23T16:34:50;15.00;92.50
68813;DHT22;55808;48.112;11.552;2023-03-23T16:37:16;14.90;94.40
68813;DHT22;55808;48.112;11.552;2023-03-23T16:39:41;14.80;94.50
68813;DHT22;55808;48.112;11.552;2023-03-23T16:42:07;14.80;95.00
68813;DHT22;55808;48.112;11.552;2023-03-23T16:44:32;14.70;96.10
68813;DHT22;55808;48.112;11.552;2023-03-23T16:46:58;14.50;96.10
68813;DHT22;55808;48.112;11.552;2023-03-23T16:49:23;14.30;97.30
68813;DHT22;55808;48.112;11.552;2023-03-23T16:51:49;14.10;99.90
68813;DHT22;55808;48.112;11.552;2023-03-23T16:54:14;14.00;99.90
68813;DHT22;55808;48.112;11.552;2023-03-23T16:56:40;14.00;99.90